sensor_id;sensor_type;location;lat;lon;timestamp;P1;durP1;ratioP1;P2;durP2;ratioP2
49728;SDS011;66333;49.798;10.968;2023-10-13T00:01:33;7.45;;;5.25;;
49728;SDS011;66333;49.798;10.968;2023-10-13T00:04:00;8.18;;;5.30;;
49728;SDS011;66333;49.798;10.968;2023-10-13T00:06:30;8.15;;;5.47;;
49728;SDS011;66333;49.798;10.968;2023-10-13T00:08:57;9.13;;;5.72;;
49728;SDS011;66333;49.798;10.968;2023-10-13T00:11:24;7.95;;;5.53;;
49728;SDS011;66333;49.798;10.968;2023-10-13T00:13:53;7.15;;;4.68;;
49728;SDS011;66333;49.798;10.968;2023-10-13T00:16:20;10.32;;;6.20;;
49728;SDS011;66333;49.798;10.968;2023-10-13T00:18:47;9.10;;;6.50;;
49728;SDS011;66333;49.798;10.968;2023-10-13T00:21:15;7.80;;;5.13;;
49728;SDS011;66333;49.798;10.968;2023-10-13T00:23:45;7.75;;;5.15;;
49728;SDS011;66333;49.798;10.968;2023-10-13T00:26:18;8.05;;;5.63;;
49728;SDS011;66333;49.798;10.968;2023-10-13T00:28:48;9.63;;;5.50;;
49728;SDS011;66333;49.798;10.968;2023-10-13T00:31:25;8.48;;;5.47;;
49728;SDS011;66333;49.798;10.968;2023-10-13T00:33:54;6.93;;;4.88;;
49728;SDS011;66333;49.798;10.968;2023-10-13T00:36:26;7.55;;;5.30;;
49728;SDS011;66333;49.798;10.968;2023-10-13T00:38:52;8.40;;;5.55;;
49728;SDS011;66333;49.798;10.968;2023-10-13T00:41:21;7.65;;;5.30;;
49728;SDS011;66333;49.798;10.968;2023-10-13T00:44:07;9.77;;;5.80;;
49728;SDS011;66333;49.798;10.968;2023-10-13T00:46:35;7.93;;;5.63;;
49728;SDS011;66333;49.798;10.968;2023-10-13T00:49:09;8.95;;;5.70;;
49728;SDS011;66333;49.798;10.968;2023-10-13T00:51:35;7.45;;;5.25;;
49728;SDS011;66333;49.798;10.968;2023-10-13T00:54:06;8.77;;;5.70;;
49728;SDS011;66333;49.798;10.968;2023-10-13T00:56:37;8.38;;;5.22;;
49728;SDS011;66333;49.798;10.968;2023-10-13T00:59:12;8.57;;;5.38;;
49728;SDS011;66333;49.798;10.968;2023-10-13T01:01:40;8.98;;;5.68;;
49728;SDS011;66333;49.798;10.968;2023-10-13T01:04:08;8.52;;;5.93;;
49728;SDS011;66333;49.798;10.968;2023-10-13T01:06:37;7.90;;;5.10;;
49728;SDS011;66333;49.798;10.968;2023-10-13T01:09:05;7.85;;;5.25;;
49728;SDS011;66333;49.798;10.968;2023-10-13T01:11:39;10.32;;;6.18;;
49728;SDS011;66333;49.798;10.968;2023-10-13T01:14:07;8.05;;;5.40;;
49728;SDS011;66333;49.798;10.968;2023-10-13T01:16:33;7.85;;;5.40;;
49728;SDS011;66333;49.798;10.968;2023-10-13T01:19:02;7.88;;;5.20;;
49728;SDS011;66333;49.798;10.968;2023-10-13T01:21:30;7.32;;;5.13;;
49728;SDS011;66333;49.798;10.968;2023-10-13T01:23:59;8.95;;;5.68;;
49728;SDS011;66333;49.798;10.968;2023-10-13T01:26:26;8.10;;;4.93;;
49728;SDS011;66333;49.798;10.968;2023-10-13T01:28:56;6.88;;;5.05;;
49728;SDS011;66333;49.798;10.968;2023-10-13T01:31:22;10.23;;;5.70;;
49728;SDS011;66333;49.798;10.968;2023-10-13T01:33:55;8.00;;;5.20;;
49728;SDS011;66333;49.798;10.968;2023-10-13T01:36:23;7.68;;;5.25;;
49728;SDS011;66333;49.798;10.968;2023-10-13T01:38:51;9.40;;;5.57;;
49728;SDS011;66333;49.798;10.968;2023-10-13T01:41:18;8.05;;;5.50;;
49728;SDS011;66333;49.798;10.968;2023-10-13T01:43:44;8.07;;;4.90;;
49728;SDS011;66333;49.798;10.968;2023-10-13T01:46:10;8.85;;;5.93;;
49728;SDS011;66333;49.798;10.968;2023-10-13T01:48:38;8.23;;;5.00;;
49728;SDS011;66333;49.798;10.968;2023-10-13T01:51:05;7.90;;;5.68;;
49728;SDS011;66333;49.798;10.968;2023-10-13T01:53:35;8.05;;;5.85;;
49728;SDS011;66333;49.798;10.968;2023-10-13T01:56:03;8.18;;;5.25;;
49728;SDS011;66333;49.798;10.968;2023-10-13T01:58:36;9.38;;;6.18;;
49728;SDS011;66333;49.798;10.968;2023-10-13T02:01:06;8.30;;;5.18;;
49728;SDS011;66333;49.798;10.968;2023-10-13T02:03:32;7.90;;;5.38;;
49728;SDS011;66333;49.798;10.968;2023-10-13T02:06:01;8.40;;;5.57;;
49728;SDS011;66333;49.798;10.968;2023-10-13T02:08:29;8.18;;;5.68;;
49728;SDS011;66333;49.798;10.968;2023-10-13T02:10:57;8.13;;;5.20;;
49728;SDS011;66333;49.798;10.968;2023-10-13T02:13:24;7.68;;;5.53;;
49728;SDS011;66333;49.798;10.968;2023-10-13T02:15:54;8.18;;;5.22;;
49728;SDS011;66333;49.798;10.968;2023-10-13T02:18:23;7.40;;;5.10;;
49728;SDS011;66333;49.798;10.968;2023-10-13T02:20:51;7.82;;;5.60;;
49728;SDS011;66333;49.798;10.968;2023-10-13T02:23:21;9.00;;;5.00;;
49728;SDS011;66333;49.798;10.968;2023-10-13T02:25:47;7.75;;;4.75;;
49728;SDS011;66333;49.798;10.968;2023-10-13T02:28:17;7.63;;;5.20;;
49728;SDS011;66333;49.798;10.968;2023-10-13T02:30:46;9.35;;;5.50;;
49728;SDS011;66333;49.798;10.968;2023-10-13T02:33:17;7.30;;;5.35;;
49728;SDS011;66333;49.798;10.968;2023-10-13T02:35:47;7.93;;;5.05;;
49728;SDS011;66333;49.798;10.968;2023-10-13T02:38:18;8.63;;;5.60;;
49728;SDS011;66333;49.798;10.968;2023-10-13T02:40:52;8.88;;;5.32;;
49728;SDS011;66333;49.798;10.968;2023-10-13T02:43:20;7.03;;;4.93;;
49728;SDS011;66333;49.798;10.968;2023-10-13T02:45:51;8.38;;;5.30;;
49728;SDS011;66333;49.798;10.968;2023-10-13T02:48:24;8.63;;;5.80;;
49728;SDS011;66333;49.798;10.968;2023-10-13T02:50:54;7.72;;;5.10;;
49728;SDS011;66333;49.798;10.968;2023-10-13T02:53:21;7.80;;;4.90;;
49728;SDS011;66333;49.798;10.968;2023-10-13T02:55:50;9.05;;;5.28;;
49728;SDS011;66333;49.798;10.968;2023-10-13T02:58:17;8.75;;;5.38;;
49728;SDS011;66333;49.798;10.968;2023-10-13T03:00:45;8.20;;;5.00;;
49728;SDS011;66333;49.798;10.968;2023-10-13T03:03:11;7.95;;;4.70;;
49728;SDS011;66333;49.798;10.968;2023-10-13T03:05:41;7.85;;;5.40;;
49728;SDS011;66333;49.798;10.968;2023-10-13T03:08:07;7.18;;;5.07;;
49728;SDS011;66333;49.798;10.968;2023-10-13T03:10:36;7.28;;;5.32;;
49728;SDS011;66333;49.798;10.968;2023-10-13T03:13:05;8.02;;;5.38;;
49728;SDS011;66333;49.798;10.968;2023-10-13T03:15:33;7.53;;;5.28;;
49728;SDS011;66333;49.798;10.968;2023-10-13T03:18:00;8.68;;;5.15;;
49728;SDS011;66333;49.798;10.968;2023-10-13T03:20:27;10.63;;;5.53;;
49728;SDS011;66333;49.798;10.968;2023-10-13T03:22:58;8.23;;;5.45;;
49728;SDS011;66333;49.798;10.968;2023-10-13T03:25:24;7.97;;;5.50;;
49728;SDS011;66333;49.798;10.968;2023-10-13T03:27:54;8.15;;;5.55;;
49728;SDS011;66333;49.798;10.968;2023-10-13T03:30:30;7.03;;;4.88;;
49728;SDS011;66333;49.798;10.968;2023-10-13T03:33:01;7.53;;;5.60;;
49728;SDS011;66333;49.798;10.968;2023-10-13T03:35:32;8.57;;;5.60;;
49728;SDS011;66333;49.798;10.968;2023-10-13T03:38:04;8.15;;;5.43;;
49728;SDS011;66333;49.798;10.968;2023-10-13T03:40:36;7.63;;;5.13;;
49728;SDS011;66333;49.798;10.968;2023-10-13T03:43:03;8.38;;;5.38;;
49728;SDS011;66333;49.798;10.968;2023-10-13T03:45:31;7.78;;;5.28;;
49728;SDS011;66333;49.798;10.968;2023-10-13T03:48:02;8.13;;;5.10;;
49728;SDS011;66333;49.798;10.968;2023-10-13T03:50:34;7.80;;;5.30;;
49728;SDS011;66333;49.798;10.968;2023-10-13T03:53:01;7.82;;;5.47;;
49728;SDS011;66333;49.798;10.968;2023-10-13T03:55:32;8.40;;;5.47;;
49728;SDS011;66333;49.798;10.968;2023-10-13T03:58:00;7.50;;;4.82;;
49728;SDS011;66333;49.798;10.968;2023-10-13T04:00:28;7.05;;;5.28;;
49728;SDS011;66333;49.798;10.968;2023-10-13T04:02:56;7.38;;;5.10;;
49728;SDS011;66333;49.798;10.968;2023-10-13T04:05:34;7.50;;;5.28;;
49728;SDS011;66333;49.798;10.968;2023-10-13T04:08:04;7.82;;;5.13;;
49728;SDS011;66333;49.798;10.968;2023-10-13T04:10:59;7.88;;;5.38;;
49728;SDS011;66333;49.798;10.968;2023-10-13T04:13:43;7.50;;;5.38;;
49728;SDS011;66333;49.798;10.968;2023-10-13T04:16:29;7.97;;;5.45;;
49728;SDS011;66333;49.798;10.968;2023-10-13T04:19:03;7.90;;;5.10;;
49728;SDS011;66333;49.798;10.968;2023-10-13T04:21:34;7.72;;;4.85;;
49728;SDS011;66333;49.798;10.968;2023-10-13T04:24:20;7.70;;;5.60;;
49728;SDS011;66333;49.798;10.968;2023-10-13T04:26:50;7.70;;;5.53;;
49728;SDS011;66333;49.798;10.968;2023-10-13T04:29:46;8.50;;;5.40;;
49728;SDS011;66333;49.798;10.968;2023-10-13T04:32:17;7.65;;;5.43;;
49728;SDS011;66333;49.798;10.968;2023-10-13T04:34:53;8.23;;;5.35;;
49728;SDS011;66333;49.798;10.968;2023-10-13T04:37:23;7.82;;;4.90;;
49728;SDS011;66333;49.798;10.968;2023-10-13T04:39:54;7.70;;;5.32;;
49728;SDS011;66333;49.798;10.968;2023-10-13T04:42:26;8.55;;;5.43;;
49728;SDS011;66333;49.798;10.968;2023-10-13T04:45:04;8.23;;;5.25;;
49728;SDS011;66333;49.798;10.968;2023-10-13T04:47:52;7.90;;;5.10;;
49728;SDS011;66333;49.798;10.968;2023-10-13T04:50:22;7.25;;;5.15;;
49728;SDS011;66333;49.798;10.968;2023-10-13T04:52:59;7.82;;;5.20;;
49728;SDS011;66333;49.798;10.968;2023-10-13T04:55:28;7.97;;;5.35;;
49728;SDS011;66333;49.798;10.968;2023-10-13T04:58:12;7.90;;;5.10;;
49728;SDS011;66333;49.798;10.968;2023-10-13T05:01:01;8.52;;;5.20;;
49728;SDS011;66333;49.798;10.968;2023-10-13T05:04:04;8.00;;;5.20;;
49728;SDS011;66333;49.798;10.968;2023-10-13T05:06:47;7.57;;;5.43;;
49728;SDS011;66333;49.798;10.968;2023-10-13T05:09:31;8.55;;;5.65;;
49728;SDS011;66333;49.798;10.968;2023-10-13T05:12:24;8.48;;;5.47;;
49728;SDS011;66333;49.798;10.968;2023-10-13T05:15:09;6.78;;;5.03;;
49728;SDS011;66333;49.798;10.968;2023-10-13T05:17:53;7.18;;;5.28;;
49728;SDS011;66333;49.798;10.968;2023-10-13T05:20:38;8.60;;;5.53;;
49728;SDS011;66333;49.798;10.968;2023-10-13T05:23:22;9.32;;;5.53;;
49728;SDS011;66333;49.798;10.968;2023-10-13T05:26:20;8.15;;;5.13;;
49728;SDS011;66333;49.798;10.968;2023-10-13T05:29:04;7.10;;;4.95;;
49728;SDS011;66333;49.798;10.968;2023-10-13T05:32:01;7.18;;;5.00;;
49728;SDS011;66333;49.798;10.968;2023-10-13T05:34:45;8.18;;;4.68;;
49728;SDS011;66333;49.798;10.968;2023-10-13T05:37:29;7.30;;;4.77;;
49728;SDS011;66333;49.798;10.968;2023-10-13T05:40:13;8.35;;;5.40;;
49728;SDS011;66333;49.798;10.968;2023-10-13T05:42:57;7.88;;;4.90;;
49728;SDS011;66333;49.798;10.968;2023-10-13T05:45:42;6.97;;;5.10;;
49728;SDS011;66333;49.798;10.968;2023-10-13T05:48:23;8.20;;;5.45;;
49728;SDS011;66333;49.798;10.968;2023-10-13T05:51:06;7.60;;;4.85;;
49728;SDS011;66333;49.798;10.968;2023-10-13T05:53:50;7.72;;;5.10;;
49728;SDS011;66333;49.798;10.968;2023-10-13T05:56:49;7.68;;;5.30;;
49728;SDS011;66333;49.798;10.968;2023-10-13T05:59:35;8.35;;;5.13;;
49728;SDS011;66333;49.798;10.968;2023-10-13T06:02:22;7.72;;;5.20;;
49728;SDS011;66333;49.798;10.968;2023-10-13T06:05:08;7.80;;;5.45;;
49728;SDS011;66333;49.798;10.968;2023-10-13T06:07:53;8.00;;;5.28;;
49728;SDS011;66333;49.798;10.968;2023-10-13T06:10:38;8.63;;;5.53;;
49728;SDS011;66333;49.798;10.968;2023-10-13T06:13:23;8.38;;;5.40;;
49728;SDS011;66333;49.798;10.968;2023-10-13T06:16:07;9.32;;;5.18;;
49728;SDS011;66333;49.798;10.968;2023-10-13T06:18:52;8.88;;;4.88;;
49728;SDS011;66333;49.798;10.968;2023-10-13T06:21:37;8.57;;;5.72;;
49728;SDS011;66333;49.798;10.968;2023-10-13T06:24:21;7.18;;;5.07;;
49728;SDS011;66333;49.798;10.968;2023-10-13T06:27:05;7.13;;;4.85;;
49728;SDS011;66333;49.798;10.968;2023-10-13T06:29:50;8.52;;;5.28;;
49728;SDS011;66333;49.798;10.968;2023-10-13T06:32:18;7.22;;;4.97;;
49728;SDS011;66333;49.798;10.968;2023-10-13T06:34:45;7.15;;;5.22;;
49728;SDS011;66333;49.798;10.968;2023-10-13T06:37:14;7.88;;;5.63;;
49728;SDS011;66333;49.798;10.968;2023-10-13T06:39:51;7.93;;;5.60;;
49728;SDS011;66333;49.798;10.968;2023-10-13T06:42:21;8.18;;;5.40;;
49728;SDS011;66333;49.798;10.968;2023-10-13T06:44:52;7.25;;;4.78;;
49728;SDS011;66333;49.798;10.968;2023-10-13T06:47:19;8.48;;;5.57;;
49728;SDS011;66333;49.798;10.968;2023-10-13T06:49:46;8.73;;;5.60;;
49728;SDS011;66333;49.798;10.968;2023-10-13T06:52:17;8.18;;;5.38;;
49728;SDS011;66333;49.798;10.968;2023-10-13T06:54:44;7.53;;;5.10;;
49728;SDS011;66333;49.798;10.968;2023-10-13T06:57:11;7.38;;;5.18;;
49728;SDS011;66333;49.798;10.968;2023-10-13T06:59:45;8.00;;;5.28;;
49728;SDS011;66333;49.798;10.968;2023-10-13T07:02:12;8.50;;;5.50;;
49728;SDS011;66333;49.798;10.968;2023-10-13T07:04:46;7.97;;;5.30;;
49728;SDS011;66333;49.798;10.968;2023-10-13T07:07:12;8.05;;;5.68;;
49728;SDS011;66333;49.798;10.968;2023-10-13T07:09:42;7.53;;;5.22;;
49728;SDS011;66333;49.798;10.968;2023-10-13T07:12:20;7.63;;;5.22;;
49728;SDS011;66333;49.798;10.968;2023-10-13T07:14:51;7.40;;;5.25;;
49728;SDS011;66333;49.798;10.968;2023-10-13T07:17:24;7.90;;;5.18;;
49728;SDS011;66333;49.798;10.968;2023-10-13T07:19:51;8.85;;;5.38;;
49728;SDS011;66333;49.798;10.968;2023-10-13T07:22:22;9.20;;;5.47;;
49728;SDS011;66333;49.798;10.968;2023-10-13T07:24:52;7.53;;;5.25;;
49728;SDS011;66333;49.798;10.968;2023-10-13T07:27:18;9.48;;;5.50;;
49728;SDS011;66333;49.798;10.968;2023-10-13T07:29:49;7.68;;;5.10;;
49728;SDS011;66333;49.798;10.968;2023-10-13T07:32:21;7.57;;;5.25;;
49728;SDS011;66333;49.798;10.968;2023-10-13T07:34:52;8.00;;;5.28;;
49728;SDS011;66333;49.798;10.968;2023-10-13T07:37:20;7.57;;;5.45;;
49728;SDS011;66333;49.798;10.968;2023-10-13T07:39:51;7.65;;;5.15;;
49728;SDS011;66333;49.798;10.968;2023-10-13T07:42:18;9.43;;;5.45;;
49728;SDS011;66333;49.798;10.968;2023-10-13T07:44:47;7.57;;;5.15;;
49728;SDS011;66333;49.798;10.968;2023-10-13T07:47:13;7.68;;;5.30;;
49728;SDS011;66333;49.798;10.968;2023-10-13T07:49:43;7.43;;;5.10;;
49728;SDS011;66333;49.798;10.968;2023-10-13T07:52:11;7.45;;;4.90;;
49728;SDS011;66333;49.798;10.968;2023-10-13T07:54:49;8.15;;;5.28;;
49728;SDS011;66333;49.798;10.968;2023-10-13T07:57:25;8.60;;;5.32;;
49728;SDS011;66333;49.798;10.968;2023-10-13T07:59:54;8.13;;;5.10;;
49728;SDS011;66333;49.798;10.968;2023-10-13T08:02:33;7.43;;;5.38;;
49728;SDS011;66333;49.798;10.968;2023-10-13T08:05:13;8.40;;;5.10;;
49728;SDS011;66333;49.798;10.968;2023-10-13T08:07:49;8.18;;;5.53;;
49728;SDS011;66333;49.798;10.968;2023-10-13T08:10:21;9.50;;;5.38;;
49728;SDS011;66333;49.798;10.968;2023-10-13T08:12:55;7.93;;;4.80;;
49728;SDS011;66333;49.798;10.968;2023-10-13T08:15:24;8.15;;;4.93;;
49728;SDS011;66333;49.798;10.968;2023-10-13T08:17:57;7.20;;;4.88;;
49728;SDS011;66333;49.798;10.968;2023-10-13T08:20:28;8.32;;;5.10;;
49728;SDS011;66333;49.798;10.968;2023-10-13T08:22:55;8.85;;;5.60;;
49728;SDS011;66333;49.798;10.968;2023-10-13T08:25:38;7.60;;;5.07;;
49728;SDS011;66333;49.798;10.968;2023-10-13T08:28:20;7.50;;;5.30;;
49728;SDS011;66333;49.798;10.968;2023-10-13T08:31:04;7.90;;;5.15;;
49728;SDS011;66333;49.798;10.968;2023-10-13T08:33:39;7.30;;;4.85;;
49728;SDS011;66333;49.798;10.968;2023-10-13T08:36:11;7.10;;;5.20;;
49728;SDS011;66333;49.798;10.968;2023-10-13T08:38:52;7.38;;;5.05;;
49728;SDS011;66333;49.798;10.968;2023-10-13T08:41:20;8.07;;;5.38;;
49728;SDS011;66333;49.798;10.968;2023-10-13T08:44:01;7.43;;;5.47;;
49728;SDS011;66333;49.798;10.968;2023-10-13T08:46:34;8.63;;;5.60;;
49728;SDS011;66333;49.798;10.968;2023-10-13T08:49:30;7.18;;;5.00;;
49728;SDS011;66333;49.798;10.968;2023-10-13T08:52:05;6.72;;;4.80;;
49728;SDS011;66333;49.798;10.968;2023-10-13T08:54:56;6.78;;;4.93;;
49728;SDS011;66333;49.798;10.968;2023-10-13T08:57:58;6.93;;;4.82;;
49728;SDS011;66333;49.798;10.968;2023-10-13T09:00:39;7.20;;;5.30;;
49728;SDS011;66333;49.798;10.968;2023-10-13T09:03:31;7.63;;;4.70;;
49728;SDS011;66333;49.798;10.968;2023-10-13T09:06:06;6.80;;;4.70;;
49728;SDS011;66333;49.798;10.968;2023-10-13T09:08:39;7.95;;;5.05;;
49728;SDS011;66333;49.798;10.968;2023-10-13T09:11:31;7.63;;;5.00;;
49728;SDS011;66333;49.798;10.968;2023-10-13T09:14:03;8.18;;;4.95;;
49728;SDS011;66333;49.798;10.968;2023-10-13T09:16:31;7.72;;;5.10;;
49728;SDS011;66333;49.798;10.968;2023-10-13T09:19:11;6.00;;;4.18;;
49728;SDS011;66333;49.798;10.968;2023-10-13T09:21:40;6.45;;;4.63;;
49728;SDS011;66333;49.798;10.968;2023-10-13T09:24:12;7.18;;;5.10;;
49728;SDS011;66333;49.798;10.968;2023-10-13T09:26:46;7.43;;;5.22;;
49728;SDS011;66333;49.798;10.968;2023-10-13T09:29:15;7.13;;;5.10;;
49728;SDS011;66333;49.798;10.968;2023-10-13T09:31:45;7.93;;;5.13;;
49728;SDS011;66333;49.798;10.968;2023-10-13T09:34:20;7.30;;;4.80;;
49728;SDS011;66333;49.798;10.968;2023-10-13T09:36:48;6.22;;;4.53;;
49728;SDS011;66333;49.798;10.968;2023-10-13T09:39:20;7.53;;;5.00;;
49728;SDS011;66333;49.798;10.968;2023-10-13T09:41:55;6.40;;;4.82;;
49728;SDS011;66333;49.798;10.968;2023-10-13T09:44:23;7.85;;;5.22;;
49728;SDS011;66333;49.798;10.968;2023-10-13T09:46:52;7.30;;;4.63;;
49728;SDS011;66333;49.798;10.968;2023-10-13T09:49:20;6.53;;;4.68;;
49728;SDS011;66333;49.798;10.968;2023-10-13T09:52:10;7.55;;;5.00;;
49728;SDS011;66333;49.798;10.968;2023-10-13T09:54:44;8.93;;;4.95;;
49728;SDS011;66333;49.798;10.968;2023-10-13T09:57:24;7.05;;;4.85;;
49728;SDS011;66333;49.798;10.968;2023-10-13T10:00:00;9.52;;;4.80;;
49728;SDS011;66333;49.798;10.968;2023-10-13T10:02:41;8.30;;;4.70;;
49728;SDS011;66333;49.798;10.968;2023-10-13T10:05:09;8.27;;;4.85;;
49728;SDS011;66333;49.798;10.968;2023-10-13T10:07:53;7.82;;;4.90;;
49728;SDS011;66333;49.798;10.968;2023-10-13T10:12:48;7.18;;;5.07;;
49728;SDS011;66333;49.798;10.968;2023-10-13T10:15:22;6.95;;;4.80;;
49728;SDS011;66333;49.798;10.968;2023-10-13T10:17:57;10.18;;;5.10;;
49728;SDS011;66333;49.798;10.968;2023-10-13T10:20:29;6.68;;;4.75;;
49728;SDS011;66333;49.798;10.968;2023-10-13T10:23:05;7.30;;;4.70;;
49728;SDS011;66333;49.798;10.968;2023-10-13T10:25:35;7.93;;;4.95;;
49728;SDS011;66333;49.798;10.968;2023-10-13T10:28:03;7.82;;;4.53;;
49728;SDS011;66333;49.798;10.968;2023-10-13T10:30:31;8.68;;;4.75;;
49728;SDS011;66333;49.798;10.968;2023-10-13T10:33:01;7.90;;;5.07;;
49728;SDS011;66333;49.798;10.968;2023-10-13T10:35:33;7.38;;;4.68;;
49728;SDS011;66333;49.798;10.968;2023-10-13T10:38:06;8.63;;;4.93;;
49728;SDS011;66333;49.798;10.968;2023-10-13T10:40:36;7.40;;;4.97;;
49728;SDS011;66333;49.798;10.968;2023-10-13T10:43:17;6.65;;;4.55;;
49728;SDS011;66333;49.798;10.968;2023-10-13T10:45:45;7.70;;;5.30;;
49728;SDS011;66333;49.798;10.968;2023-10-13T10:48:16;6.30;;;4.38;;
49728;SDS011;66333;49.798;10.968;2023-10-13T10:50:51;7.45;;;4.93;;
49728;SDS011;66333;49.798;10.968;2023-10-13T10:53:19;7.95;;;5.05;;
49728;SDS011;66333;49.798;10.968;2023-10-13T10:55:47;8.57;;;4.70;;
49728;SDS011;66333;49.798;10.968;2023-10-13T10:58:14;7.07;;;4.78;;
49728;SDS011;66333;49.798;10.968;2023-10-13T11:01:04;6.53;;;4.63;;
49728;SDS011;66333;49.798;10.968;2023-10-13T11:03:36;6.03;;;4.30;;
49728;SDS011;66333;49.798;10.968;2023-10-13T11:06:06;6.75;;;4.60;;
49728;SDS011;66333;49.798;10.968;2023-10-13T11:08:42;6.80;;;4.40;;
49728;SDS011;66333;49.798;10.968;2023-10-13T11:11:09;6.32;;;4.47;;
49728;SDS011;66333;49.798;10.968;2023-10-13T11:13:43;7.13;;;4.55;;
49728;SDS011;66333;49.798;10.968;2023-10-13T11:16:19;6.90;;;4.30;;
49728;SDS011;66333;49.798;10.968;2023-10-13T11:19:00;6.60;;;4.43;;
49728;SDS011;66333;49.798;10.968;2023-10-13T11:21:28;6.68;;;4.22;;
49728;SDS011;66333;49.798;10.968;2023-10-13T11:23:57;6.50;;;4.53;;
49728;SDS011;66333;49.798;10.968;2023-10-13T11:26:33;6.85;;;4.72;;
49728;SDS011;66333;49.798;10.968;2023-10-13T11:29:00;7.03;;;4.40;;
49728;SDS011;66333;49.798;10.968;2023-10-13T11:31:30;6.65;;;4.72;;
49728;SDS011;66333;49.798;10.968;2023-10-13T11:33:56;7.93;;;5.00;;
49728;SDS011;66333;49.798;10.968;2023-10-13T11:36:28;6.70;;;4.32;;
49728;SDS011;66333;49.798;10.968;2023-10-13T11:38:58;7.88;;;5.10;;
49728;SDS011;66333;49.798;10.968;2023-10-13T11:41:24;7.15;;;4.70;;
49728;SDS011;66333;49.798;10.968;2023-10-13T11:43:58;6.90;;;4.47;;
49728;SDS011;66333;49.798;10.968;2023-10-13T11:46:48;5.95;;;4.40;;
49728;SDS011;66333;49.798;10.968;2023-10-13T11:49:20;7.60;;;4.63;;
49728;SDS011;66333;49.798;10.968;2023-10-13T11:51:58;6.60;;;4.43;;
49728;SDS011;66333;49.798;10.968;2023-10-13T11:54:43;6.95;;;4.63;;
49728;SDS011;66333;49.798;10.968;2023-10-13T11:57:09;6.95;;;4.40;;
49728;SDS011;66333;49.798;10.968;2023-10-13T11:59:36;7.07;;;4.53;;
49728;SDS011;66333;49.798;10.968;2023-10-13T12:02:10;9.15;;;4.90;;
49728;SDS011;66333;49.798;10.968;2023-10-13T12:04:54;7.53;;;4.72;;
49728;SDS011;66333;49.798;10.968;2023-10-13T12:07:23;7.97;;;4.70;;
49728;SDS011;66333;49.798;10.968;2023-10-13T12:09:52;6.50;;;4.25;;
49728;SDS011;66333;49.798;10.968;2023-10-13T12:12:31;8.07;;;4.65;;
49728;SDS011;66333;49.798;10.968;2023-10-13T12:15:05;6.78;;;4.50;;
49728;SDS011;66333;49.798;10.968;2023-10-13T12:17:38;6.93;;;4.47;;
49728;SDS011;66333;49.798;10.968;2023-10-13T12:20:10;7.60;;;4.70;;
49728;SDS011;66333;49.798;10.968;2023-10-13T12:22:44;6.00;;;3.90;;
49728;SDS011;66333;49.798;10.968;2023-10-13T12:25:20;6.68;;;4.32;;
49728;SDS011;66333;49.798;10.968;2023-10-13T12:27:50;7.55;;;4.30;;
49728;SDS011;66333;49.798;10.968;2023-10-13T12:30:22;6.82;;;4.30;;
49728;SDS011;66333;49.798;10.968;2023-10-13T12:33:00;7.57;;;4.75;;
49728;SDS011;66333;49.798;10.968;2023-10-13T12:35:34;7.00;;;4.35;;
49728;SDS011;66333;49.798;10.968;2023-10-13T12:38:11;6.25;;;4.45;;
49728;SDS011;66333;49.798;10.968;2023-10-13T12:41:04;7.72;;;4.68;;
49728;SDS011;66333;49.798;10.968;2023-10-13T12:43:48;7.80;;;4.60;;
49728;SDS011;66333;49.798;10.968;2023-10-13T12:46:31;6.93;;;4.07;;
49728;SDS011;66333;49.798;10.968;2023-10-13T12:49:16;5.90;;;4.20;;
49728;SDS011;66333;49.798;10.968;2023-10-13T12:52:02;6.78;;;4.10;;
49728;SDS011;66333;49.798;10.968;2023-10-13T12:54:30;6.88;;;4.55;;
49728;SDS011;66333;49.798;10.968;2023-10-13T12:57:01;6.75;;;4.40;;
49728;SDS011;66333;49.798;10.968;2023-10-13T12:59:27;6.55;;;4.28;;
49728;SDS011;66333;49.798;10.968;2023-10-13T13:01:54;7.85;;;4.63;;
49728;SDS011;66333;49.798;10.968;2023-10-13T13:04:20;8.23;;;4.47;;
49728;SDS011;66333;49.798;10.968;2023-10-13T13:06:47;7.22;;;4.53;;
49728;SDS011;66333;49.798;10.968;2023-10-13T13:09:14;6.55;;;4.45;;
49728;SDS011;66333;49.798;10.968;2023-10-13T13:11:42;6.88;;;4.50;;
49728;SDS011;66333;49.798;10.968;2023-10-13T13:14:08;7.03;;;4.85;;
49728;SDS011;66333;49.798;10.968;2023-10-13T13:16:35;7.90;;;4.30;;
49728;SDS011;66333;49.798;10.968;2023-10-13T13:19:04;7.72;;;4.68;;
49728;SDS011;66333;49.798;10.968;2023-10-13T13:21:35;6.55;;;4.43;;
49728;SDS011;66333;49.798;10.968;2023-10-13T13:24:02;6.75;;;4.45;;
49728;SDS011;66333;49.798;10.968;2023-10-13T13:26:29;7.45;;;4.45;;
49728;SDS011;66333;49.798;10.968;2023-10-13T13:28:58;7.07;;;4.50;;
49728;SDS011;66333;49.798;10.968;2023-10-13T13:31:25;6.45;;;4.60;;
49728;SDS011;66333;49.798;10.968;2023-10-13T13:33:54;7.53;;;4.80;;
49728;SDS011;66333;49.798;10.968;2023-10-13T13:36:20;6.68;;;4.60;;
49728;SDS011;66333;49.798;10.968;2023-10-13T13:38:47;6.68;;;4.60;;
49728;SDS011;66333;49.798;10.968;2023-10-13T13:41:16;7.47;;;4.40;;
49728;SDS011;66333;49.798;10.968;2023-10-13T13:43:43;7.53;;;5.05;;
49728;SDS011;66333;49.798;10.968;2023-10-13T13:46:23;6.95;;;4.10;;
49728;SDS011;66333;49.798;10.968;2023-10-13T13:48:52;6.90;;;4.45;;
49728;SDS011;66333;49.798;10.968;2023-10-13T13:51:24;6.28;;;4.53;;
49728;SDS011;66333;49.798;10.968;2023-10-13T13:53:53;7.80;;;4.68;;
49728;SDS011;66333;49.798;10.968;2023-10-13T13:56:20;7.28;;;4.32;;
49728;SDS011;66333;49.798;10.968;2023-10-13T13:58:48;7.03;;;4.50;;
49728;SDS011;66333;49.798;10.968;2023-10-13T14:01:15;6.95;;;4.68;;
49728;SDS011;66333;49.798;10.968;2023-10-13T14:03:45;6.80;;;4.60;;
49728;SDS011;66333;49.798;10.968;2023-10-13T14:06:12;7.60;;;4.55;;
49728;SDS011;66333;49.798;10.968;2023-10-13T14:08:46;7.07;;;3.97;;
49728;SDS011;66333;49.798;10.968;2023-10-13T14:11:16;6.90;;;4.53;;
49728;SDS011;66333;49.798;10.968;2023-10-13T14:14:08;6.30;;;4.40;;
49728;SDS011;66333;49.798;10.968;2023-10-13T14:16:38;6.32;;;4.25;;
49728;SDS011;66333;49.798;10.968;2023-10-13T14:19:10;8.32;;;4.60;;
49728;SDS011;66333;49.798;10.968;2023-10-13T14:21:37;5.85;;;3.67;;
49728;SDS011;66333;49.798;10.968;2023-10-13T14:24:04;7.75;;;4.57;;
49728;SDS011;66333;49.798;10.968;2023-10-13T14:26:38;7.97;;;4.75;;
49728;SDS011;66333;49.798;10.968;2023-10-13T14:29:07;6.10;;;4.57;;
49728;SDS011;66333;49.798;10.968;2023-10-13T14:31:35;6.68;;;4.03;;
49728;SDS011;66333;49.798;10.968;2023-10-13T14:34:02;8.25;;;4.47;;
49728;SDS011;66333;49.798;10.968;2023-10-13T14:36:30;9.90;;;4.30;;
49728;SDS011;66333;49.798;10.968;2023-10-13T14:38:59;9.05;;;4.13;;
49728;SDS011;66333;49.798;10.968;2023-10-13T14:41:26;8.95;;;4.75;;
49728;SDS011;66333;49.798;10.968;2023-10-13T14:43:53;10.60;;;4.35;;
49728;SDS011;66333;49.798;10.968;2023-10-13T14:46:22;9.60;;;3.90;;
49728;SDS011;66333;49.798;10.968;2023-10-13T14:48:51;9.27;;;4.18;;
49728;SDS011;66333;49.798;10.968;2023-10-13T14:51:18;15.55;;;4.43;;
49728;SDS011;66333;49.798;10.968;2023-10-13T14:53:46;9.02;;;4.05;;
49728;SDS011;66333;49.798;10.968;2023-10-13T14:56:14;8.63;;;3.70;;
49728;SDS011;66333;49.798;10.968;2023-10-13T14:58:42;7.70;;;3.95;;
49728;SDS011;66333;49.798;10.968;2023-10-13T15:01:11;8.75;;;4.00;;
49728;SDS011;66333;49.798;10.968;2023-10-13T15:03:40;10.38;;;4.05;;
49728;SDS011;66333;49.798;10.968;2023-10-13T15:06:07;8.95;;;3.70;;
49728;SDS011;66333;49.798;10.968;2023-10-13T15:08:42;8.57;;;3.65;;
49728;SDS011;66333;49.798;10.968;2023-10-13T15:11:12;13.13;;;4.25;;